Caseros, Argentina
Current Conditions -  °F | °C
As of 7:00 PM on Monday 24 Nov 2014 (Local Time) from SABE Reporting Station
Scattered Clouds Scattered Clouds  
Wind Chill: 24°   Ceiling: Unl
Heat Index: 24°   Visibility: 6mi
Dew Point: 17°   Wind: 6mph
Humidity: 65%   Direction: 220°SW
Pressure: 29.8"   Gusts: NA
Location:  34.6°S, 58.55°W
Report Text: SABE 242200Z 22005KT 9999 FEW030 SCT13024/17 Q1009
Loading
Personal Weather Stations






























Interactive Weather Map New forecast layout! Learn more

10-Day Weather Forecast

Advertisements
Track Severe Weather on mobile